Terminal Aerodrome Forecast
Issued by NWS

Home | Current Version | Previous Version | Text Only | Print | Product List | Glossary On
Versions: 1 2 3 4 5 6 7 8 9 10 11 12 13 14 15 16
000
FTUS44 KEPZ 220500
TAFTCS
TAF
KTCS 220526Z 2206/2306 26010KT P6SM VCSH SCT060 BKN150
      TEMPO 2207/2210 6SM -SHRA SCT020 BKN050
     FM221000 28011KT P6SM -SHRA FEW005 BKN030 OVC060
     FM221900 14006KT P6SM SCT040 BKN070 OVC100
     FM222200 19008KT P6SM FEW040 SCT070 BKN110
     FM230400 23006KT P6SM FEW040 SCT070 SCT110=

USA.gov is the U.S. government's official web portal to all federal, state and local government web resources and services.